Rokkou — JD3010 — position and weather

sailwx.info

Track history (hours):
 
Tides and Currents Weather Stations Pressure Air Temp Water Temp Dewpoint Dewpoint Depression Visibility Wind Speed Wind Dir Waves Ship Positions

Rokkou

Last reported at 2018-Apr-25 21:30 UTC. Time now 2018-Apr-25 21:51 UTC.
Position N 34°47' E 139°11'.

Length 64 m; draft 4.3 m.

Type: Tanker. MMSI: 431001111.

Date/timePositionNaut miles runAvg speedWind from/ knotsBaromVisibWave heightAir tempDewpointWater temp
2018-Apr-25 21:30N 34°47' E 139°11'20 9.1
2018-Apr-25 19:20N 34°50' E 139°35'20 9.3
2018-Apr-25 17:08N 34°54' E 139°59'3 9.8
2018-Apr-25 16:49N 34°56' E 140°02'4 9.8
2018-Apr-25 16:27N 34°58' E 140°06'43 1.0
2018-Apr-23 20:38N 34°46' E 139°15'214.4
2018-Apr-23 20:30N 34°44' E 139°13'813.6
2018-Apr-23 19:55N 34°40' E 139°05'512.6
2018-Apr-23 19:30N 34°37' E 139°00'10811.2
2018-Apr-23 09:49N 34°42' E 136°49'510.9
2018-Apr-23 09:22N 34°46' E 136°46'410.4
2018-Apr-23 09:00N 34°50' E 136°45'510.9
2018-Apr-23 08:31N 34°56' E 136°46'611.0
2018-Apr-23 08:00N 35°00' E 136°50'1 2.6
2018-Apr-23 07:31N 35°00' E 136°51'0 0.0
2018-Apr-23 07:00N 35°00' E 136°51'0 0.0
2018-Apr-23 06:30N 35°00' E 136°51'0 0.0
2018-Apr-23 06:00N 35°00' E 136°51'0 0.0
2018-Apr-23 05:30N 35°00' E 136°51'0 0.0
2018-Apr-23 05:01N 35°00' E 136°51'0 0.1
2018-Apr-23 04:31N 35°00' E 136°51'4 8.0
2018-Apr-23 04:00N 34°57' E 136°48'611.3
2018-Apr-23 03:30N 34°52' E 136°47'611.5
2018-Apr-23 03:00N 34°46' E 136°48'611.6
2018-Apr-23 02:30N 34°41' E 136°53'105 7.4
2018-Apr-22 12:28N 33°51' E 135°02'611.0
2018-Apr-22 11:56N 33°56' E 134°57'911.0
2018-Apr-22 11:05N 34°03' E 134°50'110.9
2018-Apr-22 11:00N 34°04' E 134°49'610.8
2018-Apr-22 10:29N 34°08' E 134°45'711.9
2018-Apr-22 09:55N 34°13' E 134°40'511.6
2018-Apr-22 09:28N 34°17' E 134°35'510.9
2018-Apr-22 09:01N 34°19' E 134°30'611.3
2018-Apr-22 08:30N 34°21' E 134°23'87 4.1
2018-Apr-21 11:20N 33°57' E 132°43'610.9
2018-Apr-21 10:49N 33°54' E 132°37'2111.3
2018-Apr-21 09:00N 33°50' E 132°13'610.9
2018-Apr-21 08:30N 33°47' E 132°07'511.0
2018-Apr-21 08:01N 33°45' E 132°01'611.5
2018-Apr-21 07:30N 33°46' E 131°54'611.5
2018-Apr-21 07:01N 33°47' E 131°47'612.3
2018-Apr-21 06:31N 33°48' E 131°40'611.9
2018-Apr-21 06:00N 33°49' E 131°33'611.9
2018-Apr-21 05:29N 33°50' E 131°26'611.9
2018-Apr-21 05:01N 33°51' E 131°19'611.8
2018-Apr-21 04:31N 33°53' E 131°12'611.5
2018-Apr-21 04:01N 33°56' E 131°06'5 9.2
2018-Apr-21 03:31N 33°58' E 131°01'4 8.0
2018-Apr-21 03:01N 33°57' E 130°57'3 6.8
2018-Apr-21 02:31N 33°55' E 130°53'4 6.9
2018-Apr-21 02:00N 33°54' E 130°49'4 7.7
2018-Apr-21 01:30N 33°52' E 130°45'0 0.0
2018-Apr-21 01:01N 33°52' E 130°45'0 0.0
2018-Apr-21 00:31N 33°52' E 130°45'0 0.0
2018-Apr-21 00:00N 33°52' E 130°45'0 0.0
2018-Apr-20 23:31N 33°52' E 130°45'0 0.0
2018-Apr-20 23:00N 33°52' E 130°45'2 3.6
2018-Apr-20 22:30N 33°53' E 130°47'4 8.9
2018-Apr-20 22:01N 33°56' E 130°51'0 0.2
2018-Apr-20 21:31N 33°56' E 130°51'0 0.1
2018-Apr-20 21:00N 33°56' E 130°51'0 0.0
2018-Apr-20 20:31N 33°56' E 130°51'0 0.0
2018-Apr-20 20:01N 33°56' E 130°51'0 0.1
2018-Apr-20 19:30N 33°56' E 130°51'0 0.0
2018-Apr-20 19:01N 33°56' E 130°51'0 0.0
2018-Apr-20 18:31N 33°56' E 130°51'0 0.1
2018-Apr-20 18:01N 33°56' E 130°51'0 0.1
2018-Apr-20 17:31N 33°56' E 130°51'0 0.0
2018-Apr-20 17:00N 33°56' E 130°51'0 0.0
2018-Apr-20 16:31N 33°56' E 130°51'0 0.0
2018-Apr-20 16:00N 33°56' E 130°51'0 0.1
2018-Apr-20 15:31N 33°56' E 130°51'0 0.0
2018-Apr-20 14:59N 33°56' E 130°51'0 0.0
2018-Apr-20 14:30N 33°56' E 130°51'0 0.1
2018-Apr-20 14:01N 33°56' E 130°51'0 0.0
2018-Apr-20 13:31N 33°56' E 130°51'0 0.0
2018-Apr-20 13:00N 33°56' E 130°51'0 0.1
2018-Apr-20 12:31N 33°56' E 130°51'0 0.0
2018-Apr-20 12:01N 33°56' E 130°51'0 0.0
2018-Apr-20 11:31N 33°56' E 130°51'0 0.0
2018-Apr-20 11:01N 33°56' E 130°51'0 0.1
2018-Apr-20 10:30N 33°56' E 130°51'0 0.1
2018-Apr-20 10:01N 33°56' E 130°51'0 0.0
2018-Apr-20 09:31N 33°56' E 130°51'0 0.0
2018-Apr-20 09:01N 33°56' E 130°51'0 0.0
2018-Apr-20 08:31N 33°56' E 130°51'0 0.0
2018-Apr-20 08:00N 33°56' E 130°51'0 0.0
2018-Apr-20 07:31N 33°56' E 130°51'0 0.1
2018-Apr-20 07:01N 33°56' E 130°51'0 0.1
2018-Apr-20 06:31N 33°56' E 130°51'1 2.0
2018-Apr-20 06:01N 33°56' E 130°52'1 2.1
2018-Apr-20 05:30N 33°56' E 130°53'2 4.0
2018-Apr-20 05:00N 33°56' E 130°56'5 9.7
2018-Apr-20 04:30N 33°59' E 131°00'4 8.2
2018-Apr-20 03:59N 33°57' E 131°05'3 5.9
2018-Apr-20 03:31N 33°56' E 131°08'2 5.0
2018-Apr-20 03:00N 33°55' E 131°11'1 2.7
2018-Apr-20 02:31N 33°54' E 131°12'3 6.4
2018-Apr-20 02:00N 33°57' E 131°14'0 0.0
2018-Apr-20 01:30N 33°57' E 131°14'0 0.0
2018-Apr-20 01:00N 33°57' E 131°14'0 0.0
2018-Apr-20 00:31N 33°57' E 131°14'0 0.0
2018-Apr-20 00:01N 33°57' E 131°14'0 0.0
2018-Apr-19 23:31N 33°57' E 131°14'0 0.0
2018-Apr-19 23:00N 33°57' E 131°14'0 0.0
2018-Apr-19 22:30N 33°57' E 131°14'1 2.6
2018-Apr-19 22:01N 33°56' E 131°13'1 1.4
2018-Apr-19 21:31N 33°56' E 131°13'0 0.0
2018-Apr-19 21:01N 33°56' E 131°13'0 0.0
2018-Apr-19 20:30N 33°56' E 131°13'0 0.0
2018-Apr-19 20:00N 33°56' E 131°13'0 0.1
2018-Apr-19 19:31N 33°56' E 131°13'0 0.0
2018-Apr-19 19:01N 33°56' E 131°13'0 0.0
2018-Apr-19 18:31N 33°56' E 131°13'0 0.0
2018-Apr-19 18:01N 33°56' E 131°13'0 0.0
2018-Apr-19 17:30N 33°56' E 131°13'0 0.0
2018-Apr-19 17:01N 33°56' E 131°13'0 0.0
2018-Apr-19 16:30N 33°56' E 131°13'0 0.0
2018-Apr-19 16:01N 33°56' E 131°13'0 0.0
2018-Apr-19 15:31N 33°56' E 131°13'0 0.0
2018-Apr-19 15:00N 33°56' E 131°13'0 0.0
2018-Apr-19 14:30N 33°56' E 131°13'0 0.0
2018-Apr-19 14:01N 33°56' E 131°13'0 0.1
2018-Apr-19 13:31N 33°56' E 131°13'0 0.1
2018-Apr-19 13:00N 33°56' E 131°13'4 7.5
2018-Apr-19 12:31N 33°52' E 131°14'612.0
2018-Apr-19 12:01N 33°51' E 131°21'611.8
2018-Apr-19 11:30N 33°50' E 131°29'611.9
2018-Apr-19 11:01N 33°49' E 131°35'612.0
2018-Apr-19 10:30N 33°48' E 131°43'711.7
2018-Apr-19 09:54N 33°47' E 131°51'511.5
2018-Apr-19 09:29N 33°46' E 131°57'611.8
2018-Apr-19 09:00N 33°46' E 132°04'3011.8
2018-Apr-19 06:26N 33°55' E 132°38'613.1
2018-Apr-19 06:00N 33°59' E 132°43'8110.7
2018-Apr-18 22:22N 34°23' E 134°18'411.6
2018-Apr-18 21:59N 34°21' E 134°22'511.3
2018-Apr-18 21:30N 34°19' E 134°28'611.3
2018-Apr-18 21:00N 34°17' E 134°35'510.7
2018-Apr-18 20:31N 34°14' E 134°40'611.0
2018-Apr-18 19:59N 34°09' E 134°44'510.7
2018-Apr-18 19:30N 34°05' E 134°48'510.8
2018-Apr-18 19:00N 34°01' E 134°52'510.8
2018-Apr-18 18:31N 33°57' E 134°57'5 9.9
2018-Apr-18 18:00N 33°53' E 135°00'162 9.4
2018-Apr-18 00:44N 34°32' E 138°11'311.5
2018-Apr-18 00:28N 34°33' E 138°14'2910.6
2018-Apr-17 21:46N 34°35' E 138°49'411.9
2018-Apr-17 21:27N 34°35' E 138°54'812.7
2018-Apr-17 20:51N 34°38' E 139°02'412.2
2018-Apr-17 20:30N 34°41' E 139°06'611.3
2018-Apr-17 20:00N 34°45' E 139°11'1810.6
2018-Apr-17 18:19N 34°50' E 139°32'411.2
2018-Apr-17 17:59N 34°51' E 139°36'1910.5
2018-Apr-17 16:10N 34°54' E 139°59'3 8.9
2018-Apr-17 15:47N 34°56' E 140°03'3 9.4
2018-Apr-17 15:26N 34°57' E 140°06'50 1.5
2018-Apr-16 05:34N 34°40' E 139°09'210.6
2018-Apr-16 05:20N 34°39' E 139°06'511.1
2018-Apr-16 04:51N 34°37' E 139°00'  
Track history (hours):
 
Tides and Currents Weather Stations Pressure Air Temp Water Temp Dewpoint Dewpoint Depression Visibility Wind Speed Wind Dir Waves Ship Positions

Rokkou

Last reported at 2018-Apr-25 21:30 UTC. Time now 2018-Apr-25 21:51 UTC.
Position N 34°47' E 139°11'.

Length 64 m; draft 4.3 m.

Type: Tanker. MMSI: 431001111.

Date/timePositionNaut miles runAvg speedWind from/ knotsBaromVisibWave heightAir tempDewpointWater temp
2018-Apr-25 21:30N 34°47' E 139°11'20 9.1
2018-Apr-25 19:20N 34°50' E 139°35'20 9.3
2018-Apr-25 17:08N 34°54' E 139°59'3 9.8
2018-Apr-25 16:49N 34°56' E 140°02'4 9.8
2018-Apr-25 16:27N 34°58' E 140°06'43 1.0
2018-Apr-23 20:38N 34°46' E 139°15'214.4
2018-Apr-23 20:30N 34°44' E 139°13'813.6
2018-Apr-23 19:55N 34°40' E 139°05'512.6
2018-Apr-23 19:30N 34°37' E 139°00'10811.2
2018-Apr-23 09:49N 34°42' E 136°49'510.9
2018-Apr-23 09:22N 34°46' E 136°46'410.4
2018-Apr-23 09:00N 34°50' E 136°45'510.9
2018-Apr-23 08:31N 34°56' E 136°46'611.0
2018-Apr-23 08:00N 35°00' E 136°50'1 2.6
2018-Apr-23 07:31N 35°00' E 136°51'0 0.0
2018-Apr-23 07:00N 35°00' E 136°51'0 0.0
2018-Apr-23 06:30N 35°00' E 136°51'0 0.0
2018-Apr-23 06:00N 35°00' E 136°51'0 0.0
2018-Apr-23 05:30N 35°00' E 136°51'0 0.0
2018-Apr-23 05:01N 35°00' E 136°51'0 0.1
2018-Apr-23 04:31N 35°00' E 136°51'4 8.0
2018-Apr-23 04:00N 34°57' E 136°48'611.3
2018-Apr-23 03:30N 34°52' E 136°47'611.5
2018-Apr-23 03:00N 34°46' E 136°48'611.6
2018-Apr-23 02:30N 34°41' E 136°53'105 7.4
2018-Apr-22 12:28N 33°51' E 135°02'611.0
2018-Apr-22 11:56N 33°56' E 134°57'911.0
2018-Apr-22 11:05N 34°03' E 134°50'110.9
2018-Apr-22 11:00N 34°04' E 134°49'610.8
2018-Apr-22 10:29N 34°08' E 134°45'711.9
2018-Apr-22 09:55N 34°13' E 134°40'511.6
2018-Apr-22 09:28N 34°17' E 134°35'510.9
2018-Apr-22 09:01N 34°19' E 134°30'611.3
2018-Apr-22 08:30N 34°21' E 134°23'87 4.1
2018-Apr-21 11:20N 33°57' E 132°43'610.9
2018-Apr-21 10:49N 33°54' E 132°37'2111.3
2018-Apr-21 09:00N 33°50' E 132°13'610.9
2018-Apr-21 08:30N 33°47' E 132°07'511.0
2018-Apr-21 08:01N 33°45' E 132°01'611.5
2018-Apr-21 07:30N 33°46' E 131°54'611.5
2018-Apr-21 07:01N 33°47' E 131°47'612.3
2018-Apr-21 06:31N 33°48' E 131°40'611.9
2018-Apr-21 06:00N 33°49' E 131°33'611.9
2018-Apr-21 05:29N 33°50' E 131°26'611.9
2018-Apr-21 05:01N 33°51' E 131°19'611.8
2018-Apr-21 04:31N 33°53' E 131°12'611.5
2018-Apr-21 04:01N 33°56' E 131°06'5 9.2
2018-Apr-21 03:31N 33°58' E 131°01'4 8.0
2018-Apr-21 03:01N 33°57' E 130°57'3 6.8
2018-Apr-21 02:31N 33°55' E 130°53'4 6.9
2018-Apr-21 02:00N 33°54' E 130°49'4 7.7
2018-Apr-21 01:30N 33°52' E 130°45'0 0.0
2018-Apr-21 01:01N 33°52' E 130°45'0 0.0
2018-Apr-21 00:31N 33°52' E 130°45'0 0.0
2018-Apr-21 00:00N 33°52' E 130°45'0 0.0
2018-Apr-20 23:31N 33°52' E 130°45'0 0.0
2018-Apr-20 23:00N 33°52' E 130°45'2 3.6
2018-Apr-20 22:30N 33°53' E 130°47'4 8.9
2018-Apr-20 22:01N 33°56' E 130°51'0 0.2
2018-Apr-20 21:31N 33°56' E 130°51'0 0.1
2018-Apr-20 21:00N 33°56' E 130°51'0 0.0
2018-Apr-20 20:31N 33°56' E 130°51'0 0.0
2018-Apr-20 20:01N 33°56' E 130°51'0 0.1
2018-Apr-20 19:30N 33°56' E 130°51'0 0.0
2018-Apr-20 19:01N 33°56' E 130°51'0 0.0
2018-Apr-20 18:31N 33°56' E 130°51'0 0.1
2018-Apr-20 18:01N 33°56' E 130°51'0 0.1
2018-Apr-20 17:31N 33°56' E 130°51'0 0.0
2018-Apr-20 17:00N 33°56' E 130°51'0 0.0
2018-Apr-20 16:31N 33°56' E 130°51'0 0.0
2018-Apr-20 16:00N 33°56' E 130°51'0 0.1
2018-Apr-20 15:31N 33°56' E 130°51'0 0.0
2018-Apr-20 14:59N 33°56' E 130°51'0 0.0
2018-Apr-20 14:30N 33°56' E 130°51'0 0.1
2018-Apr-20 14:01N 33°56' E 130°51'0 0.0
2018-Apr-20 13:31N 33°56' E 130°51'0 0.0
2018-Apr-20 13:00N 33°56' E 130°51'0 0.1
2018-Apr-20 12:31N 33°56' E 130°51'0 0.0
2018-Apr-20 12:01N 33°56' E 130°51'0 0.0
2018-Apr-20 11:31N 33°56' E 130°51'0 0.0
2018-Apr-20 11:01N 33°56' E 130°51'0 0.1
2018-Apr-20 10:30N 33°56' E 130°51'0 0.1
2018-Apr-20 10:01N 33°56' E 130°51'0 0.0
2018-Apr-20 09:31N 33°56' E 130°51'0 0.0
2018-Apr-20 09:01N 33°56' E 130°51'0 0.0
2018-Apr-20 08:31N 33°56' E 130°51'0 0.0
2018-Apr-20 08:00N 33°56' E 130°51'0 0.0
2018-Apr-20 07:31N 33°56' E 130°51'0 0.1
2018-Apr-20 07:01N 33°56' E 130°51'0 0.1
2018-Apr-20 06:31N 33°56' E 130°51'1 2.0
2018-Apr-20 06:01N 33°56' E 130°52'1 2.1
2018-Apr-20 05:30N 33°56' E 130°53'2 4.0
2018-Apr-20 05:00N 33°56' E 130°56'5 9.7
2018-Apr-20 04:30N 33°59' E 131°00'4 8.2
2018-Apr-20 03:59N 33°57' E 131°05'3 5.9
2018-Apr-20 03:31N 33°56' E 131°08'2 5.0
2018-Apr-20 03:00N 33°55' E 131°11'1 2.7
2018-Apr-20 02:31N 33°54' E 131°12'3 6.4
2018-Apr-20 02:00N 33°57' E 131°14'0 0.0
2018-Apr-20 01:30N 33°57' E 131°14'0 0.0
2018-Apr-20 01:00N 33°57' E 131°14'0 0.0
2018-Apr-20 00:31N 33°57' E 131°14'0 0.0
2018-Apr-20 00:01N 33°57' E 131°14'0 0.0
2018-Apr-19 23:31N 33°57' E 131°14'0 0.0
2018-Apr-19 23:00N 33°57' E 131°14'0 0.0
2018-Apr-19 22:30N 33°57' E 131°14'1 2.6
2018-Apr-19 22:01N 33°56' E 131°13'1 1.4
2018-Apr-19 21:31N 33°56' E 131°13'0 0.0
2018-Apr-19 21:01N 33°56' E 131°13'0 0.0
2018-Apr-19 20:30N 33°56' E 131°13'0 0.0
2018-Apr-19 20:00N 33°56' E 131°13'0 0.1
2018-Apr-19 19:31N 33°56' E 131°13'0 0.0
2018-Apr-19 19:01N 33°56' E 131°13'0 0.0
2018-Apr-19 18:31N 33°56' E 131°13'0 0.0
2018-Apr-19 18:01N 33°56' E 131°13'0 0.0
2018-Apr-19 17:30N 33°56' E 131°13'0 0.0
2018-Apr-19 17:01N 33°56' E 131°13'0 0.0
2018-Apr-19 16:30N 33°56' E 131°13'0 0.0
2018-Apr-19 16:01N 33°56' E 131°13'0 0.0
2018-Apr-19 15:31N 33°56' E 131°13'0 0.0
2018-Apr-19 15:00N 33°56' E 131°13'0 0.0
2018-Apr-19 14:30N 33°56' E 131°13'0 0.0
2018-Apr-19 14:01N 33°56' E 131°13'0 0.1
2018-Apr-19 13:31N 33°56' E 131°13'0 0.1
2018-Apr-19 13:00N 33°56' E 131°13'4 7.5
2018-Apr-19 12:31N 33°52' E 131°14'612.0
2018-Apr-19 12:01N 33°51' E 131°21'611.8
2018-Apr-19 11:30N 33°50' E 131°29'611.9
2018-Apr-19 11:01N 33°49' E 131°35'612.0
2018-Apr-19 10:30N 33°48' E 131°43'711.7
2018-Apr-19 09:54N 33°47' E 131°51'511.5
2018-Apr-19 09:29N 33°46' E 131°57'611.8
2018-Apr-19 09:00N 33°46' E 132°04'3011.8
2018-Apr-19 06:26N 33°55' E 132°38'613.1
2018-Apr-19 06:00N 33°59' E 132°43'8110.7
2018-Apr-18 22:22N 34°23' E 134°18'411.6
2018-Apr-18 21:59N 34°21' E 134°22'511.3
2018-Apr-18 21:30N 34°19' E 134°28'611.3
2018-Apr-18 21:00N 34°17' E 134°35'510.7
2018-Apr-18 20:31N 34°14' E 134°40'611.0
2018-Apr-18 19:59N 34°09' E 134°44'510.7
2018-Apr-18 19:30N 34°05' E 134°48'510.8
2018-Apr-18 19:00N 34°01' E 134°52'510.8
2018-Apr-18 18:31N 33°57' E 134°57'5 9.9
2018-Apr-18 18:00N 33°53' E 135°00'162 9.4
2018-Apr-18 00:44N 34°32' E 138°11'311.5
2018-Apr-18 00:28N 34°33' E 138°14'2910.6
2018-Apr-17 21:46N 34°35' E 138°49'411.9
2018-Apr-17 21:27N 34°35' E 138°54'812.7
2018-Apr-17 20:51N 34°38' E 139°02'412.2
2018-Apr-17 20:30N 34°41' E 139°06'611.3
2018-Apr-17 20:00N 34°45' E 139°11'1810.6
2018-Apr-17 18:19N 34°50' E 139°32'411.2
2018-Apr-17 17:59N 34°51' E 139°36'1910.5
2018-Apr-17 16:10N 34°54' E 139°59'3 8.9
2018-Apr-17 15:47N 34°56' E 140°03'3 9.4
2018-Apr-17 15:26N 34°57' E 140°06'50 1.5
2018-Apr-16 05:34N 34°40' E 139°09'210.6
2018-Apr-16 05:20N 34°39' E 139°06'511.1
2018-Apr-16 04:51N 34°37' E 139°00'  

Dump ship's entire track history